Terminal Aerodrome Forecast
Issued by NWS

Home | Current Version | Previous Version | Text Only | Print | Product List | Glossary On
Versions: 1 2 3 4 5 6 7 8 9 10 11 12 13 14 15 16 17 18 19 20 21 22 23 24 25 26 27 28 29 30
000
FTUS42 KGSP 302332
TAFHKY
TAF
KHKY 302332Z 0100/0124 24007KT P6SM -SHRA VCTS SCT060CB BKN120
     FM010100 24006KT P6SM BKN060
     FM010300 24005KT P6SM SCT060 SCT120
     FM011600 25006KT P6SM SCT250
     FM011700 25006KT P6SM SCT060
     FM012000 24007KT P6SM BKN060 PROB30 0120/0124 4SM TSRA
      BKN040CB=

USA.gov is the U.S. government's official web portal to all federal, state and local government web resources and services.